createdAt,value
2019-02-03T00:01:58.501Z,3.70
2019-02-03T00:04:27.371Z,3.64
2019-02-03T00:07:03.529Z,3.56
2019-02-03T00:09:30.387Z,3.62
2019-02-03T00:11:59.057Z,3.75
2019-02-03T00:14:27.694Z,3.61
2019-02-03T00:16:56.669Z,3.71
2019-02-03T00:19:25.320Z,3.44
2019-02-03T00:21:53.976Z,3.57
2019-02-03T00:24:22.664Z,3.71
2019-02-03T00:26:51.305Z,3.51
2019-02-03T00:29:22.780Z,3.48
2019-02-03T00:31:51.414Z,3.44
2019-02-03T00:34:22.528Z,3.52
2019-02-03T00:36:51.148Z,3.43
2019-02-03T00:39:19.752Z,3.57
2019-02-03T00:41:48.375Z,3.53
2019-02-03T00:44:18.636Z,3.46
2019-02-03T00:46:47.440Z,3.65
2019-02-03T00:49:16.162Z,3.48
2019-02-03T00:51:44.848Z,3.41
2019-02-03T00:54:13.446Z,3.56
2019-02-03T00:56:42.045Z,3.57
2019-02-03T00:59:10.714Z,3.41
2019-02-03T01:01:39.399Z,3.60
2019-02-03T01:04:08.081Z,3.40
2019-02-03T01:06:36.925Z,3.60
2019-02-03T01:09:09.540Z,3.65
2019-02-03T01:11:38.530Z,3.34
2019-02-03T01:14:07.198Z,3.34
2019-02-03T01:16:35.763Z,3.55
2019-02-03T01:19:04.522Z,3.46
2019-02-03T01:21:33.151Z,3.46
2019-02-03T01:24:01.841Z,3.45
2019-02-03T01:26:30.571Z,3.48
2019-02-03T01:28:59.249Z,3.59
2019-02-03T01:31:27.913Z,3.35
2019-02-03T01:33:56.560Z,3.45
2019-02-03T01:36:25.241Z,3.40
2019-02-03T01:38:53.856Z,3.14
2019-02-03T01:41:22.531Z,3.33
2019-02-03T01:43:51.165Z,3.26
2019-02-03T01:46:19.776Z,3.04
2019-02-03T01:48:48.405Z,3.28
2019-02-03T01:51:17.018Z,3.25
2019-02-03T01:53:45.533Z,3.37
2019-02-03T01:56:14.169Z,3.34
2019-02-03T01:58:42.770Z,3.37
2019-02-03T02:01:11.336Z,3.43
2019-02-03T02:03:39.973Z,3.34
2019-02-03T02:06:08.620Z,3.46
2019-02-03T02:08:37.543Z,3.65
2019-02-03T02:11:06.497Z,3.41
2019-02-03T02:13:35.185Z,3.56
2019-02-03T02:16:03.872Z,3.67
2019-02-03T02:18:32.513Z,3.70
2019-02-03T02:21:01.167Z,3.92
2019-02-03T02:23:30.178Z,3.78
2019-02-03T02:25:58.829Z,3.65
2019-02-03T02:28:27.435Z,3.66
2019-02-03T02:30:56.057Z,3.62
2019-02-03T02:33:24.659Z,3.68
2019-02-03T02:35:53.287Z,3.73
2019-02-03T02:38:22.258Z,3.66
2019-02-03T02:40:50.798Z,3.60
2019-02-03T02:43:19.403Z,3.51
2019-02-03T02:45:48.022Z,3.71
2019-02-03T02:48:16.564Z,3.74
2019-02-03T02:50:45.352Z,3.81
2019-02-03T02:53:14.360Z,3.63
2019-02-03T02:55:45.997Z,3.71
2019-02-03T02:58:14.624Z,3.67
2019-02-03T03:00:43.265Z,3.56
2019-02-03T03:03:11.957Z,3.58
2019-02-03T03:05:40.638Z,3.63
2019-02-03T03:08:18.452Z,3.70
2019-02-03T03:10:43.537Z,3.44
2019-02-03T03:13:12.089Z,3.41
2019-02-03T03:15:40.759Z,3.58
2019-02-03T03:18:09.463Z,3.67
2019-02-03T03:20:38.430Z,3.35
2019-02-03T03:23:07.074Z,3.41
2019-02-03T03:25:35.623Z,3.38
2019-02-03T03:28:04.401Z,3.68
2019-02-03T03:30:33.100Z,3.56
2019-02-03T03:33:01.751Z,3.46
2019-02-03T03:35:33.737Z,3.25
2019-02-03T03:38:00.753Z,3.31
2019-02-03T03:40:29.979Z,3.48
2019-02-03T03:42:58.747Z,3.52
2019-02-03T03:45:28.279Z,3.41
2019-02-03T03:47:56.956Z,3.32
2019-02-03T03:50:25.520Z,3.42
2019-02-03T03:52:54.197Z,3.36
2019-02-03T03:55:22.861Z,3.53
2019-02-03T03:57:51.505Z,3.57
2019-02-03T04:00:24.608Z,3.45
2019-02-03T04:02:53.295Z,3.16
2019-02-03T04:05:21.944Z,3.13
2019-02-03T04:07:50.954Z,3.18
2019-02-03T04:10:24.153Z,3.40
2019-02-03T04:12:52.803Z,3.34
2019-02-03T04:15:22.342Z,3.42
2019-02-03T04:17:51.064Z,3.34
2019-02-03T04:20:27.839Z,3.45
2019-02-03T04:22:56.480Z,3.59
2019-02-03T04:25:25.110Z,3.39
2019-02-03T04:27:53.856Z,3.54
2019-02-03T04:30:29.963Z,3.62
2019-02-03T04:32:58.575Z,3.48
2019-02-03T04:35:27.262Z,3.61
2019-02-03T04:37:55.901Z,3.51
2019-02-03T04:40:24.521Z,3.51
2019-02-03T04:42:53.147Z,3.70
2019-02-03T04:45:22.705Z,3.45
2019-02-03T04:47:51.750Z,3.29
2019-02-03T04:50:22.546Z,3.41
2019-02-03T04:52:51.172Z,3.41
2019-02-03T04:55:21.323Z,3.49
2019-02-03T04:57:50.466Z,3.63
2019-02-03T05:00:23.752Z,3.51
2019-02-03T05:02:52.435Z,3.68
2019-02-03T05:05:21.165Z,3.39
2019-02-03T05:07:49.846Z,3.52
2019-02-03T05:10:19.546Z,3.58
2019-02-03T05:12:48.290Z,3.33
2019-02-03T05:15:19.700Z,3.41
2019-02-03T05:17:48.495Z,3.34
2019-02-03T05:20:19.123Z,3.27
2019-02-03T05:22:48.035Z,3.43
2019-02-03T05:25:16.705Z,3.29
2019-02-03T05:27:45.282Z,3.32
2019-02-03T05:30:16.669Z,3.19
2019-02-03T05:32:45.306Z,3.33
2019-02-03T05:35:13.998Z,3.22
2019-02-03T05:37:42.555Z,3.37
2019-02-03T05:40:13.893Z,3.37
2019-02-03T05:42:45.194Z,3.39
2019-02-03T05:45:20.307Z,3.32
2019-02-03T05:47:50.239Z,3.40
2019-02-03T05:50:21.216Z,3.53
2019-02-03T05:52:49.846Z,3.64
2019-02-03T05:55:19.194Z,3.83
2019-02-03T05:57:47.829Z,3.88
2019-02-03T06:00:20.813Z,4.10
2019-02-03T06:02:49.423Z,4.05
2019-02-03T06:05:18.056Z,4.16
2019-02-03T06:07:46.735Z,4.26
2019-02-03T06:10:17.785Z,4.36
2019-02-03T06:12:46.526Z,4.32
2019-02-03T06:15:15.961Z,4.21
2019-02-03T06:17:44.598Z,4.43
2019-02-03T06:20:17.959Z,4.46
2019-02-03T06:22:47.346Z,4.31
2019-02-03T06:25:16.392Z,4.46
2019-02-03T06:27:45.080Z,4.19
2019-02-03T06:30:25.451Z,4.32
2019-02-03T06:32:54.136Z,4.24
2019-02-03T06:35:22.772Z,4.16
2019-02-03T06:37:51.390Z,4.48
2019-02-03T06:40:20.590Z,4.48
2019-02-03T06:42:49.218Z,4.61
2019-02-03T06:45:26.676Z,4.75
2019-02-03T06:47:55.301Z,4.86
2019-02-03T06:50:23.925Z,4.99
2019-02-03T06:52:52.918Z,5.15
2019-02-03T06:55:21.610Z,4.99
2019-02-03T06:57:50.223Z,5.30
2019-02-03T07:00:19.006Z,5.35
2019-02-03T07:02:47.692Z,5.34
2019-02-03T07:05:16.393Z,5.44
2019-02-03T07:07:45.420Z,5.55
2019-02-03T07:10:14.226Z,5.91
2019-02-03T07:12:42.835Z,5.97
2019-02-03T07:15:11.973Z,6.07
2019-02-03T07:17:40.587Z,6.21
2019-02-03T07:20:18.164Z,6.27
2019-02-03T07:22:52.501Z,6.30
2019-02-03T07:25:23.936Z,6.17
2019-02-03T07:27:55.499Z,6.34
2019-02-03T07:30:26.489Z,6.39
2019-02-03T07:32:55.290Z,6.50
2019-02-03T07:35:26.656Z,6.53
2019-02-03T07:37:55.271Z,6.65
2019-02-03T07:40:23.950Z,6.79
2019-02-03T07:42:52.577Z,6.95
2019-02-03T07:45:21.149Z,7.05
2019-02-03T07:47:49.721Z,7.12
2019-02-03T07:50:18.340Z,7.18
2019-02-03T07:52:46.981Z,6.98
2019-02-03T07:55:19.458Z,7.08
2019-02-03T07:57:47.996Z,7.33
2019-02-03T08:00:19.797Z,7.31
2019-02-03T08:02:48.576Z,7.23
2019-02-03T08:05:17.365Z,7.39
2019-02-03T08:07:45.980Z,7.29
2019-02-03T08:10:26.435Z,7.20
2019-02-03T08:12:47.746Z,7.34
2019-02-03T08:15:17.780Z,7.44
2019-02-03T08:17:46.406Z,7.74
2019-02-03T08:20:26.485Z,7.58
2019-02-03T08:22:55.215Z,7.85
2019-02-03T08:25:23.873Z,8.02
2019-02-03T08:27:52.542Z,8.12
2019-02-03T08:30:29.852Z,8.29
2019-02-03T08:32:58.683Z,8.62
2019-02-03T08:35:27.371Z,8.75
2019-02-03T08:37:56.053Z,8.53
2019-02-03T08:40:36.714Z,8.75
2019-02-03T08:42:59.626Z,9.26
2019-02-03T08:45:28.310Z,9.29
2019-02-03T08:47:56.944Z,9.40
2019-02-03T08:50:26.026Z,9.51
2019-02-03T08:52:55.222Z,9.69
2019-02-03T08:55:23.907Z,9.72
2019-02-03T08:57:52.544Z,9.94
2019-02-03T09:00:29.747Z,10.09
2019-02-03T09:02:58.454Z,10.37
2019-02-03T09:05:27.606Z,10.47
2019-02-03T09:07:56.290Z,10.42
2019-02-03T09:10:26.034Z,10.69
2019-02-03T09:12:54.728Z,10.22
2019-02-03T09:15:29.906Z,10.50
2019-02-03T09:17:58.545Z,10.39
2019-02-03T09:20:34.409Z,10.56
2019-02-03T09:23:03.214Z,9.91
2019-02-03T09:25:31.875Z,10.61
2019-02-03T09:28:00.561Z,10.93
2019-02-03T09:30:37.617Z,10.85
2019-02-03T09:33:07.710Z,10.77
2019-02-03T09:35:36.338Z,11.23
2019-02-03T09:38:05.182Z,11.60
2019-02-03T09:40:34.956Z,11.62
2019-02-03T09:43:03.593Z,11.53
2019-02-03T09:45:32.559Z,11.53
2019-02-03T09:48:01.187Z,11.56
2019-02-03T09:50:32.855Z,11.96
2019-02-03T09:53:02.698Z,11.87
2019-02-03T09:55:31.990Z,11.73
2019-02-03T09:58:01.339Z,11.43
2019-02-03T10:00:37.330Z,11.46
2019-02-03T10:03:11.580Z,11.38
2019-02-03T10:05:43.150Z,11.41
2019-02-03T10:08:11.836Z,11.25
2019-02-03T10:10:42.051Z,11.07
2019-02-03T10:13:10.734Z,11.13
2019-02-03T10:15:39.299Z,11.11
2019-02-03T10:18:09.542Z,11.33
2019-02-03T10:20:38.176Z,10.86
2019-02-03T10:23:09.816Z,10.90
2019-02-03T10:25:38.439Z,10.78
2019-02-03T10:28:07.237Z,10.57
2019-02-03T10:30:35.939Z,10.61
2019-02-03T10:33:05.264Z,10.82
2019-02-03T10:35:34.897Z,11.05
2019-02-03T10:38:06.988Z,10.66
2019-02-03T10:40:41.273Z,10.75
2019-02-03T10:43:10.556Z,11.01
2019-02-03T10:45:39.207Z,10.92
2019-02-03T10:48:07.865Z,10.77
2019-02-03T10:50:39.079Z,10.93
2019-02-03T10:53:10.673Z,10.95
2019-02-03T10:55:39.308Z,10.90
2019-02-03T10:58:10.932Z,10.54
2019-02-03T11:00:42.285Z,10.77
2019-02-03T11:03:13.638Z,10.72
2019-02-03T11:05:44.765Z,10.95
2019-02-03T11:08:15.203Z,10.76
2019-02-03T11:10:44.469Z,10.87
2019-02-03T11:13:13.190Z,10.97
2019-02-03T11:15:41.874Z,11.06
2019-02-03T11:18:10.957Z,11.05
2019-02-03T11:20:39.664Z,11.07
2019-02-03T11:23:08.399Z,10.96
2019-02-03T11:25:37.064Z,11.08
2019-02-03T11:28:06.111Z,10.86
2019-02-03T11:30:34.883Z,10.97
2019-02-03T11:33:06.051Z,10.87
2019-02-03T11:35:33.902Z,11.23
2019-02-03T11:38:02.537Z,11.22
2019-02-03T11:40:33.776Z,11.24
2019-02-03T11:43:05.753Z,11.38
2019-02-03T11:45:41.532Z,11.45
2019-02-03T11:48:15.465Z,11.69
2019-02-03T11:50:45.411Z,11.47
2019-02-03T11:53:16.812Z,11.57
2019-02-03T11:55:45.438Z,11.64
2019-02-03T11:58:14.179Z,11.78
2019-02-03T12:00:45.639Z,11.71
2019-02-03T12:03:14.278Z,11.55
2019-02-03T12:05:42.953Z,11.73
2019-02-03T12:08:11.583Z,11.92
2019-02-03T12:10:40.194Z,11.92
2019-02-03T12:13:09.027Z,12.00
2019-02-03T12:15:38.045Z,12.19
2019-02-03T12:18:07.028Z,12.61
2019-02-03T12:20:35.656Z,12.52
2019-02-03T12:23:04.448Z,12.47
2019-02-03T12:25:41.330Z,12.24
2019-02-03T12:28:10.494Z,12.04
2019-02-03T12:30:39.234Z,11.97
2019-02-03T12:33:08.349Z,11.87
2019-02-03T12:35:39.942Z,11.71
2019-02-03T12:38:08.583Z,11.45
2019-02-03T12:40:44.198Z,11.36
2019-02-03T12:43:12.836Z,11.35
2019-02-03T12:45:41.521Z,11.38
2019-02-03T12:48:10.468Z,11.47
2019-02-03T12:50:39.145Z,11.40
2019-02-03T12:53:08.267Z,11.33
2019-02-03T12:55:39.884Z,11.25
2019-02-03T12:58:08.567Z,11.22
2019-02-03T13:00:37.793Z,11.17
2019-02-03T13:03:08.276Z,11.15
2019-02-03T13:05:36.963Z,11.16
2019-02-03T13:08:06.698Z,11.04
2019-02-03T13:10:37.504Z,11.10
2019-02-03T13:13:07.887Z,11.27
2019-02-03T13:15:45.396Z,11.19
2019-02-03T13:18:14.210Z,11.21
2019-02-03T13:20:43.233Z,11.34
2019-02-03T13:23:12.023Z,11.52
2019-02-03T13:25:43.389Z,11.22
2019-02-03T13:28:12.062Z,11.27
2019-02-03T13:30:42.816Z,11.33
2019-02-03T13:33:11.548Z,11.19
2019-02-03T13:35:40.242Z,11.37
2019-02-03T13:38:09.274Z,11.42
2019-02-03T13:40:40.896Z,11.08
2019-02-03T13:43:09.583Z,11.06
2019-02-03T13:45:38.805Z,10.95
2019-02-03T13:48:07.990Z,11.05
2019-02-03T13:50:36.639Z,10.85
2019-02-03T13:53:05.421Z,10.66
2019-02-03T13:55:34.055Z,10.77
2019-02-03T13:58:02.741Z,10.76
2019-02-03T14:00:37.134Z,10.90
2019-02-03T14:03:08.693Z,11.04
2019-02-03T14:05:37.319Z,11.07
2019-02-03T14:08:05.968Z,11.19
2019-02-03T14:10:35.956Z,11.09
2019-02-03T14:13:08.965Z,10.72
2019-02-03T14:15:40.490Z,10.63
2019-02-03T14:18:09.219Z,10.27
2019-02-03T14:20:37.906Z,10.35
2019-02-03T14:23:06.651Z,10.68
2019-02-03T14:25:38.519Z,10.58
2019-02-03T14:28:07.267Z,10.27
2019-02-03T14:30:41.651Z,10.27
2019-02-03T14:33:10.574Z,10.74
2019-02-03T14:35:39.308Z,11.07
2019-02-03T14:38:10.524Z,11.09
2019-02-03T14:40:39.165Z,11.45
2019-02-03T14:43:07.854Z,12.08
2019-02-03T14:45:37.887Z,13.04
2019-02-03T14:48:09.580Z,14.22
2019-02-03T14:50:38.494Z,14.97
2019-02-03T14:53:09.648Z,15.63
2019-02-03T14:55:41.061Z,15.73
2019-02-03T14:58:09.846Z,14.93
2019-02-03T15:00:49.189Z,14.58
2019-02-03T15:03:19.319Z,15.03
2019-02-03T15:05:47.985Z,15.23
2019-02-03T15:08:19.768Z,14.70
2019-02-03T15:10:48.408Z,14.02
2019-02-03T15:13:17.113Z,13.17
2019-02-03T15:15:45.948Z,13.02
2019-02-03T15:18:14.666Z,12.49
2019-02-03T15:20:44.224Z,12.37
2019-02-03T15:23:15.973Z,11.94
2019-02-03T15:25:50.367Z,11.45
2019-02-03T15:28:19.161Z,11.07
2019-02-03T15:30:49.337Z,10.75
2019-02-03T15:33:17.981Z,10.64
2019-02-03T15:35:46.662Z,10.63
2019-02-03T15:38:15.293Z,10.07
2019-02-03T15:40:47.436Z,9.81
2019-02-03T15:43:25.082Z,9.77
2019-02-03T15:45:49.183Z,9.62
2019-02-03T15:48:20.689Z,9.20
2019-02-03T15:50:49.223Z,8.68
2019-02-03T15:53:20.977Z,8.63
2019-02-03T15:55:52.622Z,8.30
2019-02-03T15:58:24.600Z,8.53
2019-02-03T16:00:53.887Z,8.41
2019-02-03T16:03:25.490Z,8.14
2019-02-03T16:05:57.735Z,7.89
2019-02-03T16:08:29.689Z,7.86
2019-02-03T16:10:58.248Z,7.67
2019-02-03T16:13:36.799Z,7.43
2019-02-03T16:15:59.930Z,7.53
2019-02-03T16:18:28.662Z,7.22
2019-02-03T16:20:57.399Z,7.29
2019-02-03T16:23:26.217Z,7.01
2019-02-03T16:25:54.897Z,6.95
2019-02-03T16:28:23.454Z,7.24
2019-02-03T16:30:55.331Z,7.15
2019-02-03T16:33:26.961Z,7.04
2019-02-03T16:35:55.615Z,7.16
2019-02-03T16:38:27.183Z,7.32
2019-02-03T16:40:55.855Z,7.27
2019-02-03T16:43:24.496Z,7.18
2019-02-03T16:45:53.078Z,7.05
2019-02-03T16:48:24.517Z,7.07
2019-02-03T16:50:53.253Z,6.97
2019-02-03T16:53:21.982Z,6.76
2019-02-03T16:55:53.601Z,6.49
2019-02-03T16:58:28.442Z,6.38
2019-02-03T17:00:59.491Z,6.52
2019-02-03T17:03:28.126Z,6.63
2019-02-03T17:05:56.807Z,6.62
2019-02-03T17:08:25.517Z,6.42
2019-02-03T17:10:54.244Z,6.21
2019-02-03T17:13:23.316Z,6.13
2019-02-03T17:15:56.211Z,6.01
2019-02-03T17:18:27.660Z,6.09
2019-02-03T17:21:01.855Z,5.94
2019-02-03T17:23:27.635Z,6.20
2019-02-03T17:25:59.479Z,6.35
2019-02-03T17:28:29.649Z,6.06
2019-02-03T17:30:58.367Z,5.78
2019-02-03T17:33:31.554Z,5.76
2019-02-03T17:36:00.275Z,5.85
2019-02-03T17:38:29.342Z,5.63
2019-02-03T17:40:58.084Z,5.84
2019-02-03T17:43:26.723Z,5.95
2019-02-03T17:45:55.412Z,5.86
2019-02-03T17:48:24.043Z,5.97
2019-02-03T17:50:53.219Z,6.01
2019-02-03T17:53:21.938Z,5.76
2019-02-03T17:55:53.618Z,6.01
2019-02-03T17:58:25.976Z,6.11
2019-02-03T18:00:56.238Z,6.22
2019-02-03T18:03:24.911Z,6.01
2019-02-03T18:05:56.524Z,6.22
2019-02-03T18:08:25.222Z,6.17
2019-02-03T18:10:53.863Z,6.37
2019-02-03T18:13:22.496Z,6.20
2019-02-03T18:15:54.120Z,6.17
2019-02-03T18:18:22.764Z,6.17
2019-02-03T18:20:51.716Z,6.41
2019-02-03T18:23:20.360Z,6.34
2019-02-03T18:25:49.058Z,6.47
2019-02-03T18:28:17.659Z,6.22
2019-02-03T18:30:49.144Z,6.15
2019-02-03T18:33:17.820Z,6.02
2019-02-03T18:35:49.261Z,6.08
2019-02-03T18:38:17.895Z,6.09
2019-02-03T18:40:46.615Z,6.01
2019-02-03T18:43:18.233Z,5.84
2019-02-03T18:45:49.999Z,5.87
2019-02-03T18:48:18.816Z,6.02
2019-02-03T18:50:51.396Z,5.92
2019-02-03T18:53:20.109Z,5.62
2019-02-03T18:55:48.816Z,5.63
2019-02-03T18:58:21.731Z,5.61
2019-02-03T19:00:53.943Z,5.37
2019-02-03T19:03:27.004Z,5.37
2019-02-03T19:05:55.651Z,5.56
2019-02-03T19:08:24.396Z,5.60
2019-02-03T19:10:53.077Z,5.68
2019-02-03T19:13:24.476Z,5.73
2019-02-03T19:15:53.110Z,5.85
2019-02-03T19:18:24.438Z,5.88
2019-02-03T19:20:52.985Z,5.92
2019-02-03T19:23:21.671Z,5.82
2019-02-03T19:25:53.477Z,5.76
2019-02-03T19:28:22.166Z,5.65
2019-02-03T19:30:50.802Z,5.74
2019-02-03T19:33:19.535Z,5.61
2019-02-03T19:35:50.963Z,5.48
2019-02-03T19:38:22.264Z,5.40
2019-02-03T19:40:51.444Z,5.38
2019-02-03T19:43:24.959Z,5.34
2019-02-03T19:45:53.272Z,5.45
2019-02-03T19:48:21.959Z,5.47
2019-02-03T19:50:50.545Z,5.25
2019-02-03T19:53:19.229Z,5.30
2019-02-03T19:55:47.795Z,5.13
2019-02-03T19:58:18.744Z,5.24
2019-02-03T20:00:47.440Z,5.40
2019-02-03T20:03:16.082Z,5.33
2019-02-03T20:05:44.727Z,5.07
2019-02-03T20:08:13.398Z,5.12
2019-02-03T20:10:42.056Z,5.17
2019-02-03T20:13:13.760Z,5.46
2019-02-03T20:15:42.420Z,5.41
2019-02-03T20:18:11.109Z,5.49
2019-02-03T20:20:41.047Z,5.52
2019-02-03T20:23:10.068Z,5.50
2019-02-03T20:25:38.752Z,5.39
2019-02-03T20:28:07.980Z,5.65
2019-02-03T20:30:38.971Z,5.48
2019-02-03T20:33:07.126Z,5.58
2019-02-03T20:35:35.804Z,5.57
2019-02-03T20:38:05.522Z,5.48
2019-02-03T20:40:39.270Z,5.42
2019-02-03T20:43:07.910Z,5.45
2019-02-03T20:45:48.456Z,5.38
2019-02-03T20:48:06.885Z,5.44
2019-02-03T20:50:35.584Z,5.49
2019-02-03T20:53:04.236Z,5.64
2019-02-03T20:55:32.912Z,5.55
2019-02-03T20:58:01.609Z,5.29
2019-02-03T21:00:37.971Z,5.14
2019-02-03T21:03:07.214Z,5.06
2019-02-03T21:05:36.090Z,5.17
2019-02-03T21:08:04.943Z,5.27
2019-02-03T21:10:40.345Z,5.27
2019-02-03T21:13:11.407Z,5.19
2019-02-03T21:15:39.363Z,5.24
2019-02-03T21:18:08.402Z,5.30
2019-02-03T21:20:37.056Z,5.18
2019-02-03T21:23:05.945Z,5.19
2019-02-03T21:25:34.590Z,5.32
2019-02-03T21:28:03.230Z,5.46
2019-02-03T21:30:34.442Z,5.50
2019-02-03T21:33:10.376Z,5.53
2019-02-03T21:35:41.690Z,5.46
2019-02-03T21:38:10.333Z,5.25
2019-02-03T21:40:38.963Z,5.38
2019-02-03T21:43:07.793Z,5.27
2019-02-03T21:45:44.337Z,5.51
2019-02-03T21:48:07.172Z,5.65
2019-02-03T21:50:35.857Z,5.65
2019-02-03T21:53:04.590Z,5.76
2019-02-03T21:55:33.296Z,5.82
2019-02-03T21:58:01.989Z,6.03
2019-02-03T22:00:33.852Z,6.20
2019-02-03T22:03:02.519Z,6.25
2019-02-03T22:05:31.300Z,6.11
2019-02-03T22:08:00.118Z,6.26
2019-02-03T22:10:36.841Z,6.29
2019-02-03T22:13:08.645Z,6.19
2019-02-03T22:15:37.319Z,6.12
2019-02-03T22:18:05.958Z,5.96
2019-02-03T22:20:34.517Z,5.98
2019-02-03T22:23:03.129Z,6.15
2019-02-03T22:25:32.200Z,6.16
2019-02-03T22:28:03.922Z,6.31
2019-02-03T22:30:37.804Z,6.33
2019-02-03T22:33:06.785Z,6.31
2019-02-03T22:35:35.414Z,6.39
2019-02-03T22:38:04.528Z,6.28
2019-02-03T22:40:33.225Z,6.19
2019-02-03T22:43:03.154Z,6.06
2019-02-03T22:45:31.865Z,6.03
2019-02-03T22:48:00.552Z,6.01
2019-02-03T22:50:34.196Z,5.70
2019-02-03T22:53:02.818Z,5.69
2019-02-03T22:55:31.461Z,5.62
2019-02-03T22:58:00.147Z,5.76
2019-02-03T23:00:44.265Z,5.71
2019-02-03T23:03:13.323Z,5.94
2019-02-03T23:05:41.961Z,5.98
2019-02-03T23:08:10.649Z,5.88
2019-02-03T23:10:39.340Z,6.02
2019-02-03T23:13:10.987Z,5.90
2019-02-03T23:15:39.872Z,5.71
2019-02-03T23:18:11.594Z,5.74
2019-02-03T23:20:40.286Z,5.85
2019-02-03T23:23:08.858Z,5.88
2019-02-03T23:25:37.543Z,5.98
2019-02-03T23:28:06.207Z,5.95
2019-02-03T23:30:34.854Z,5.70
2019-02-03T23:33:03.540Z,5.54
2019-02-03T23:35:32.181Z,5.73
2019-02-03T23:38:00.818Z,5.99
2019-02-03T23:40:29.497Z,5.95
2019-02-03T23:42:58.921Z,6.05
2019-02-03T23:45:27.616Z,6.11
2019-02-03T23:47:56.381Z,6.05
2019-02-03T23:50:25.049Z,5.92
2019-02-03T23:52:53.723Z,6.09
2019-02-03T23:55:22.349Z,6.20
2019-02-03T23:57:50.993Z,6.04
